2TN7 weather

Wolf Creek Airport
Kingston, Tennessee, United States

Public forecast

Using degrees Fahrenheit for public forecast. Weather courtesy of forecast.io.

Closest aviation weather report (METAR) to Wolf Creek Airport

Closest report is Monroe County Airport, 15.6 nm (29.0 km) S. Retrieved 2020/08/04 05:35 UTC (0 seconds ago):

KMNV 040535Z AUTO 00000KT 10SM CLR 20/20 A2996 RMK A01

Closest aviation forecast (TAF) to Wolf Creek Airport

Closest forecast is McGhee Tyson Airport, 20.5 nm (38.0 km) E. Retrieved 2020-08-04 00:27 UTC (5 hours ago):

TAF KTYS 032325Z 0400/0424 00000KT P6SM FEW030 SCT100 BKN250 FM041000 00000KT 4SM BR FEW008 FM041300 00000KT P6SM FEW040 FM042000 26006KT P6SM SCT050 PROB30 0421/0424 4SM TSRA BR BKN050CB